createdAt,value
2023-04-21T00:02:42.763Z,102033.16
2023-04-21T00:07:45.368Z,102025.97
2023-04-21T00:12:49.189Z,102034.44
2023-04-21T00:17:51.901Z,102027.41
2023-04-21T00:22:54.494Z,102022.69
2023-04-21T00:27:58.315Z,102009.47
2023-04-21T00:33:00.949Z,102010.50
2023-04-21T00:38:03.502Z,102011.84
2023-04-21T00:43:08.520Z,102006.63
2023-04-21T00:48:12.200Z,102003.38
2023-04-21T00:53:16.102Z,102008.22
2023-04-21T00:58:19.961Z,101999.56
2023-04-21T01:03:22.624Z,102005.88
2023-04-21T01:08:25.743Z,102006.50
2023-04-21T01:13:29.547Z,102002.97
2023-04-21T01:18:32.089Z,102005.03
2023-04-21T01:23:35.978Z,102013.94
2023-04-21T01:28:38.914Z,102006.97
2023-04-21T01:33:41.482Z,102007.22
2023-04-21T01:38:46.689Z,102003.41
2023-04-21T01:43:49.206Z,101997.38
2023-04-21T01:48:51.691Z,101991.75
2023-04-21T01:53:55.543Z,101992.50
2023-04-21T01:58:58.016Z,101990.53
2023-04-21T02:04:00.733Z,101993.78
2023-04-21T02:09:05.322Z,101977.84
2023-04-21T02:14:07.984Z,101969.88
2023-04-21T02:19:10.577Z,101974.19
2023-04-21T02:24:14.444Z,101973.13
2023-04-21T02:29:17.031Z,101973.13
2023-04-21T02:34:20.565Z,101974.41
2023-04-21T02:39:24.401Z,101981.19
2023-04-21T02:44:26.878Z,101974.91
2023-04-21T02:49:29.368Z,101978.44
2023-04-21T02:54:33.209Z,101964.97
2023-04-21T02:59:35.735Z,101968.34
2023-04-21T03:04:38.484Z,101957.25
2023-04-21T03:09:42.502Z,101965.91
2023-04-21T03:14:45.120Z,101957.91
2023-04-21T03:19:47.620Z,101948.53
2023-04-21T03:24:51.448Z,101950.50
2023-04-21T03:29:54.069Z,101949.69
2023-04-21T03:34:56.539Z,101950.38
2023-04-21T03:40:01.056Z,101944.06
2023-04-21T03:45:03.870Z,101941.47
2023-04-21T03:50:07.535Z,101942.91
2023-04-21T03:55:12.047Z,101943.25
2023-04-21T04:00:15.154Z,101946.38
2023-04-21T04:05:17.716Z,101939.53
2023-04-21T04:10:21.737Z,101940.69
2023-04-21T04:15:24.204Z,101938.44
2023-04-21T04:20:26.983Z,101940.75
2023-04-21T04:25:30.990Z,101943.09
2023-04-21T04:30:34.053Z,101946.38
2023-04-21T04:35:36.560Z,101947.13
2023-04-21T04:40:40.423Z,101953.53
2023-04-21T04:45:43.831Z,101950.56
2023-04-21T04:50:46.608Z,101942.50
2023-04-21T04:55:50.640Z,101937.06
2023-04-21T05:00:53.181Z,101940.66
2023-04-21T05:05:57.457Z,101945.78
2023-04-21T05:11:01.374Z,101951.16
2023-04-21T05:16:03.911Z,101956.41
2023-04-21T05:21:06.827Z,101943.38
2023-04-21T05:26:10.686Z,101941.09
2023-04-21T05:31:13.198Z,101946.59
2023-04-21T05:36:15.862Z,101951.31
2023-04-21T05:41:19.701Z,101959.56
2023-04-21T05:46:22.215Z,101944.53
2023-04-21T05:51:24.713Z,101947.66
2023-04-21T05:56:28.804Z,101953.69
2023-04-21T06:01:31.384Z,101950.63
2023-04-21T06:06:33.911Z,101941.13
2023-04-21T06:11:37.742Z,101953.13
2023-04-21T06:16:40.269Z,101948.34
2023-04-21T06:21:42.814Z,101939.34
2023-04-21T06:26:46.638Z,101938.97
2023-04-21T06:31:49.224Z,101927.97
2023-04-21T06:36:51.756Z,101931.00
2023-04-21T06:41:57.973Z,101927.06
2023-04-21T06:47:00.528Z,101916.31
2023-04-21T06:52:03.074Z,101920.44
2023-04-21T06:57:06.948Z,101921.72
2023-04-21T07:02:09.695Z,101914.16
2023-04-21T07:07:14.230Z,101912.28
2023-04-21T07:12:18.091Z,101917.47
2023-04-21T07:17:20.568Z,101911.69
2023-04-21T07:22:23.048Z,101905.41
2023-04-21T07:27:26.888Z,101909.06
2023-04-21T07:32:29.422Z,101909.72
2023-04-21T07:37:32.233Z,101911.69
2023-04-21T07:42:36.207Z,101902.91
2023-04-21T07:47:38.985Z,101900.56
2023-04-21T07:52:41.510Z,101904.13
2023-04-21T07:57:45.345Z,101896.88
2023-04-21T08:02:48.093Z,101897.75
2023-04-21T08:07:50.752Z,101883.00
2023-04-21T08:12:54.636Z,101881.25
2023-04-21T08:17:57.162Z,101887.25
2023-04-21T08:22:59.718Z,101883.28
2023-04-21T08:28:03.592Z,101872.94
2023-04-21T08:33:07.993Z,101883.53
2023-04-21T08:38:10.545Z,101873.25
2023-04-21T08:43:14.457Z,101882.50
2023-04-21T08:48:20.100Z,101869.06
2023-04-21T08:53:22.637Z,101874.84
2023-04-21T08:58:26.485Z,101866.34
2023-04-21T09:03:30.137Z,101866.50
2023-04-21T09:08:33.905Z,101866.53
2023-04-21T09:13:38.619Z,101867.59
2023-04-21T09:18:42.636Z,101862.97
2023-04-21T09:23:47.128Z,101868.25
2023-04-21T09:28:52.708Z,101858.28
2023-04-21T09:34:00.330Z,101859.84
2023-04-21T09:44:12.250Z,101847.66
2023-04-21T09:49:17.430Z,101842.22
2023-04-21T09:59:31.662Z,101834.75
2023-04-21T10:04:36.298Z,101821.97
2023-04-21T10:09:44.060Z,101832.81
2023-04-21T10:14:52.045Z,101823.94
2023-04-21T10:19:57.145Z,101821.25
2023-04-21T10:25:01.766Z,101809.72
2023-04-21T10:36:00.887Z,101793.50
2023-04-21T10:41:27.936Z,101787.78
2023-04-21T10:46:34.805Z,101785.25
2023-04-21T10:52:07.324Z,101782.78
2023-04-21T10:57:12.325Z,101776.78
2023-04-21T11:02:16.485Z,101779.75
2023-04-21T11:07:21.599Z,101778.03
2023-04-21T11:12:28.898Z,101782.22
2023-04-21T11:17:31.564Z,101766.94
2023-04-21T11:22:37.824Z,101748.91
2023-04-21T11:27:40.364Z,101758.94
2023-04-21T11:32:43.697Z,101751.63
2023-04-21T11:37:50.821Z,101735.75
2023-04-21T11:42:53.647Z,101745.47
2023-04-21T11:48:14.553Z,101732.06
2023-04-21T11:53:18.462Z,101729.19
2023-04-21T11:58:21.978Z,101727.81
2023-04-21T12:03:24.660Z,101727.84
2023-04-21T12:08:32.321Z,101725.66
2023-04-21T12:13:36.050Z,101716.38
2023-04-21T12:18:38.513Z,101704.78
2023-04-21T12:23:42.520Z,101708.28
2023-04-21T12:28:45.437Z,101694.94
2023-04-21T12:33:47.962Z,101703.63
2023-04-21T12:38:52.061Z,101686.91
2023-04-21T12:43:54.615Z,101689.16
2023-04-21T12:48:57.290Z,101676.63
2023-04-21T12:54:01.287Z,101667.41
2023-04-21T12:59:04.192Z,101674.00
2023-04-21T13:04:07.140Z,101663.53
2023-04-21T13:09:11.511Z,101655.94
2023-04-21T13:14:15.136Z,101648.03
2023-04-21T13:19:17.609Z,101641.22
2023-04-21T13:24:21.646Z,101644.56
2023-04-21T13:29:24.173Z,101629.81
2023-04-21T13:34:26.718Z,101641.19
2023-04-21T13:39:30.832Z,101630.44
2023-04-21T13:44:33.520Z,101625.25
2023-04-21T13:49:36.249Z,101614.38
2023-04-21T13:54:40.102Z,101605.00
2023-04-21T13:59:42.689Z,101607.63
2023-04-21T14:04:45.434Z,101593.16
2023-04-21T14:09:51.535Z,101582.53
2023-04-21T14:14:54.115Z,101570.09
2023-04-21T14:19:56.660Z,101566.31
2023-04-21T14:25:00.494Z,101550.19
2023-04-21T14:30:03.163Z,101561.78
2023-04-21T14:35:06.623Z,101554.72
2023-04-21T14:40:11.555Z,101540.38
2023-04-21T14:45:14.031Z,101531.19
2023-04-21T14:50:16.709Z,101540.31
2023-04-21T14:55:20.568Z,101535.19
2023-04-21T15:00:23.949Z,101530.34
2023-04-21T15:05:26.590Z,101516.53
2023-04-21T15:10:32.261Z,101518.91
2023-04-21T15:15:34.793Z,101524.78
2023-04-21T15:20:44.363Z,101513.88
2023-04-21T15:25:49.314Z,101515.63
2023-04-21T15:30:51.833Z,101505.72
2023-04-21T15:35:54.402Z,101496.56
2023-04-21T15:41:01.055Z,101496.97
2023-04-21T15:46:10.447Z,101492.88
2023-04-21T15:51:14.348Z,101484.38
2023-04-21T15:56:18.307Z,101491.88
2023-04-21T16:01:22.292Z,101482.00
2023-04-21T16:06:25.289Z,101492.66
2023-04-21T16:11:29.487Z,101474.22
2023-04-21T16:16:32.167Z,101472.81
2023-04-21T16:21:35.040Z,101469.56
2023-04-21T16:26:38.864Z,101456.41
2023-04-21T16:31:41.438Z,101454.09
2023-04-21T16:36:44.531Z,101448.22
2023-04-21T16:41:48.375Z,101444.63
2023-04-21T16:46:50.932Z,101456.25
2023-04-21T16:51:53.601Z,101441.19
2023-04-21T16:56:58.164Z,101438.09
2023-04-21T17:02:00.739Z,101437.47
2023-04-21T17:07:03.258Z,101434.91
2023-04-21T17:12:07.295Z,101433.25
2023-04-21T17:17:09.954Z,101434.19
2023-04-21T17:22:12.551Z,101437.53
2023-04-21T17:27:16.373Z,101441.72
2023-04-21T17:32:19.507Z,101434.78
2023-04-21T17:37:22.201Z,101432.38
2023-04-21T17:42:26.126Z,101431.38
2023-04-21T17:47:28.650Z,101426.16
2023-04-21T17:52:31.478Z,101442.00
2023-04-21T17:57:35.333Z,101434.88
2023-04-21T18:02:38.114Z,101436.69
2023-04-21T18:07:40.824Z,101433.38
2023-04-21T18:12:44.610Z,101436.50
2023-04-21T18:17:47.194Z,101439.59
2023-04-21T18:22:51.710Z,101444.53
2023-04-21T18:27:55.792Z,101438.09
2023-04-21T18:32:58.414Z,101449.94
2023-04-21T18:38:01.133Z,101441.03
2023-04-21T18:43:05.223Z,101440.84
2023-04-21T18:48:09.160Z,101447.00
2023-04-21T18:53:11.724Z,101438.94
2023-04-21T18:58:15.999Z,101442.56
2023-04-21T19:03:20.021Z,101445.28
2023-04-21T19:08:34.196Z,101437.63
2023-04-21T19:13:44.976Z,101441.06
2023-04-21T19:18:47.671Z,101446.53
2023-04-21T19:23:50.797Z,101443.50
2023-04-21T19:28:55.171Z,101441.69
2023-04-21T19:33:57.656Z,101437.31
2023-04-21T19:39:00.239Z,101433.53
2023-04-21T19:44:05.065Z,101431.06
2023-04-21T19:49:07.580Z,101422.22
2023-04-21T19:54:12.157Z,101425.59
2023-04-21T19:59:16.414Z,101415.28
2023-04-21T20:04:19.176Z,101423.41
2023-04-21T20:09:21.799Z,101416.19
2023-04-21T20:14:25.692Z,101410.50
2023-04-21T20:19:30.838Z,101405.88
2023-04-21T20:24:34.126Z,101405.81
2023-04-21T20:29:38.266Z,101412.91
2023-04-21T20:34:40.975Z,101407.66
2023-04-21T20:39:46.766Z,101411.44
2023-04-21T20:44:51.093Z,101394.22
2023-04-21T20:49:54.648Z,101403.81
2023-04-21T20:54:57.187Z,101402.88
2023-04-21T21:00:01.062Z,101406.84
2023-04-21T21:05:04.149Z,101395.47
2023-04-21T21:10:08.102Z,101394.78
2023-04-21T21:15:12.711Z,101395.81
2023-04-21T21:20:15.220Z,101388.78
2023-04-21T21:25:17.861Z,101381.47
2023-04-21T21:30:21.852Z,101385.97
2023-04-21T21:35:24.419Z,101382.66
2023-04-21T21:40:26.969Z,101387.78
2023-04-21T21:45:30.935Z,101385.19
2023-04-21T21:50:33.518Z,101389.34
2023-04-21T21:55:36.113Z,101384.13
2023-04-21T22:00:39.999Z,101387.69
2023-04-21T22:05:42.523Z,101381.06
2023-04-21T22:10:46.089Z,101383.22
2023-04-21T22:15:49.945Z,101385.72
2023-04-21T22:20:52.454Z,101390.94
2023-04-21T22:25:55.006Z,101380.38
2023-04-21T22:30:58.907Z,101380.25
2023-04-21T22:36:01.450Z,101381.81
2023-04-21T22:41:03.974Z,101379.75
2023-04-21T22:46:08.056Z,101375.53
2023-04-21T22:51:10.512Z,101385.28
2023-04-21T22:56:13.144Z,101389.81
2023-04-21T23:01:17.040Z,101381.94
2023-04-21T23:06:19.650Z,101377.97
2023-04-21T23:11:22.137Z,101370.66
2023-04-21T23:16:26.111Z,101371.75
2023-04-21T23:21:28.663Z,101372.88
2023-04-21T23:26:31.134Z,101365.44
2023-04-21T23:31:35.064Z,101368.47
2023-04-21T23:36:37.582Z,101374.38
2023-04-21T23:41:40.105Z,101366.69
2023-04-21T23:46:43.979Z,101361.53
2023-04-21T23:51:46.533Z,101356.84
2023-04-21T23:56:49.004Z,101358.28
